Terminal Aerodrome Forecast
Issued by NWS Shreveport, LA

Home | Current Version | Previous Version | Text Only | Print | Product List | Glossary On
Versions: 1 2 3 4 5 6 7 8 9 10 11 12 13
962
FTUS44 KSHV 201720
TAFTYR
TAF
KTYR 201720Z 2018/2118 10012KT P6SM BKN250
     FM210000 12009KT P6SM BKN150
     FM211000 12009KT P6SM OVC100
     FM211600 14012G20KT P6SM OVC030=

USA.gov is the U.S. government's official web portal to all federal, state and local government web resources and services.